createdAt,value
2019-03-12T00:01:06.374Z,77.33
2019-03-12T00:03:36.290Z,76.91
2019-03-12T00:06:05.473Z,77.76
2019-03-12T00:08:36.296Z,78.14
2019-03-12T00:11:05.361Z,77.91
2019-03-12T00:13:34.544Z,78.04
2019-03-12T00:16:03.627Z,78.57
2019-03-12T00:18:37.050Z,77.89
2019-03-12T00:21:07.709Z,78.18
2019-03-12T00:23:36.796Z,79.03
2019-03-12T00:26:07.471Z,79.62
2019-03-12T00:28:36.579Z,79.75
2019-03-12T00:31:05.724Z,80.19
2019-03-12T00:33:34.818Z,80.83
2019-03-12T00:36:06.230Z,81.37
2019-03-12T00:38:37.650Z,81.26
2019-03-12T00:41:07.759Z,81.42
2019-03-12T00:43:36.870Z,82.38
2019-03-12T00:46:06.063Z,82.30
2019-03-12T00:48:35.170Z,82.05
2019-03-12T00:51:04.281Z,81.44
2019-03-12T00:53:33.472Z,81.54
2019-03-12T00:56:02.591Z,81.63
2019-03-12T00:58:31.615Z,81.05
2019-03-12T01:01:00.778Z,81.10
2019-03-12T01:03:29.914Z,81.34
2019-03-12T01:05:59.036Z,81.28
2019-03-12T01:08:30.173Z,81.26
2019-03-12T01:10:59.274Z,81.41
2019-03-12T01:13:28.285Z,81.33
2019-03-12T01:15:57.397Z,82.80
2019-03-12T01:18:28.301Z,81.87
2019-03-12T01:20:57.509Z,82.32
2019-03-12T01:23:26.591Z,81.88
2019-03-12T01:25:58.017Z,81.14
2019-03-12T01:28:27.085Z,82.12
2019-03-12T01:30:56.192Z,82.61
2019-03-12T01:33:27.292Z,81.85
2019-03-12T01:35:56.471Z,81.53
2019-03-12T01:38:25.573Z,83.06
2019-03-12T01:40:54.966Z,84.46
2019-03-12T01:43:27.470Z,85.14
2019-03-12T01:45:56.556Z,84.26
2019-03-12T01:48:26.047Z,85.87
2019-03-12T01:50:55.121Z,84.74
2019-03-12T01:53:24.239Z,85.22
2019-03-12T01:55:53.360Z,85.55
2019-03-12T01:58:22.533Z,84.58
2019-03-12T02:00:51.619Z,85.78
2019-03-12T02:03:20.678Z,85.45
2019-03-12T02:05:49.880Z,84.52
2019-03-12T02:08:19.156Z,84.91
2019-03-12T02:10:48.243Z,84.33
2019-03-12T02:13:24.235Z,83.42
2019-03-12T02:15:53.383Z,83.85
2019-03-12T02:18:25.994Z,84.15
2019-03-12T02:20:55.092Z,84.16
2019-03-12T02:23:24.155Z,85.64
2019-03-12T02:25:53.266Z,84.92
2019-03-12T02:28:24.408Z,84.19
2019-03-12T02:30:53.515Z,85.75
2019-03-12T02:33:22.651Z,85.80
2019-03-12T02:35:51.775Z,85.14
2019-03-12T02:38:20.890Z,85.24
2019-03-12T02:40:49.921Z,85.39
2019-03-12T02:43:19.076Z,86.41
2019-03-12T02:45:48.131Z,87.15
2019-03-12T02:48:17.209Z,86.36
2019-03-12T02:50:46.297Z,87.20
2019-03-12T02:53:20.021Z,87.73
2019-03-12T02:55:49.107Z,87.40
2019-03-12T02:58:19.401Z,86.66
2019-03-12T03:00:48.970Z,86.96
2019-03-12T03:03:18.059Z,87.02
2019-03-12T03:05:55.594Z,87.54
2019-03-12T03:08:30.311Z,86.03
2019-03-12T03:10:59.346Z,87.00
2019-03-12T03:13:28.694Z,86.19
2019-03-12T03:15:57.773Z,85.95
2019-03-12T03:18:28.047Z,85.62
2019-03-12T03:20:57.118Z,86.44
2019-03-12T03:23:27.825Z,85.97
2019-03-12T03:25:56.936Z,88.07
2019-03-12T03:28:26.204Z,87.44
2019-03-12T03:30:55.395Z,87.43
2019-03-12T03:33:24.521Z,87.39
2019-03-12T03:35:53.605Z,88.56
2019-03-12T03:38:22.695Z,88.52
2019-03-12T03:40:51.821Z,89.28
2019-03-12T03:43:20.965Z,89.47
2019-03-12T03:45:54.169Z,89.17
2019-03-12T03:48:23.271Z,89.12
2019-03-12T03:50:52.355Z,88.18
2019-03-12T03:53:21.463Z,88.34
2019-03-12T03:55:50.554Z,87.58
2019-03-12T03:58:19.615Z,87.03
2019-03-12T04:00:48.739Z,86.81
2019-03-12T04:03:20.268Z,85.93
2019-03-12T04:05:49.464Z,86.38
2019-03-12T04:08:18.670Z,87.17
2019-03-12T04:10:47.812Z,86.97
2019-03-12T04:13:16.893Z,87.00
2019-03-12T04:15:46.057Z,87.13
2019-03-12T04:18:15.137Z,87.20
2019-03-12T04:20:44.257Z,86.55
2019-03-12T04:23:16.090Z,88.46
2019-03-12T04:25:44.208Z,89.23
2019-03-12T04:28:13.480Z,89.20
2019-03-12T04:30:42.624Z,89.08
2019-03-12T04:33:40.556Z,89.28
2019-03-12T04:36:09.671Z,87.97
2019-03-12T04:38:38.673Z,88.78
2019-03-12T04:41:08.926Z,88.32
2019-03-12T04:43:38.028Z,88.65
2019-03-12T04:46:07.122Z,88.53
2019-03-12T04:48:36.205Z,87.50
2019-03-12T04:51:05.300Z,88.46
2019-03-12T04:53:37.468Z,87.91
2019-03-12T04:56:05.252Z,86.79
2019-03-12T04:58:34.352Z,86.67
2019-03-12T05:01:03.446Z,86.27
2019-03-12T05:03:32.496Z,87.28
2019-03-12T05:06:01.613Z,87.33
2019-03-12T05:08:30.861Z,86.81
2019-03-12T05:10:59.918Z,85.85
2019-03-12T05:13:29.035Z,86.29
2019-03-12T05:15:58.160Z,86.30
2019-03-12T05:18:27.219Z,86.23
2019-03-12T05:20:56.310Z,86.50
2019-03-12T05:23:25.404Z,86.86
2019-03-12T05:25:54.613Z,86.31
2019-03-12T05:28:23.673Z,85.67
2019-03-12T05:30:52.732Z,85.18
2019-03-12T05:33:21.800Z,85.57
2019-03-12T05:35:50.945Z,85.69
2019-03-12T05:38:20.064Z,85.89
2019-03-12T05:40:49.176Z,86.98
2019-03-12T05:43:18.295Z,87.27
2019-03-12T05:45:47.443Z,87.22
2019-03-12T05:48:16.474Z,86.42
2019-03-12T05:50:45.488Z,86.82
2019-03-12T05:53:15.102Z,86.57
2019-03-12T05:55:44.246Z,86.08
2019-03-12T05:58:13.369Z,85.24
2019-03-12T06:00:42.542Z,85.54
2019-03-12T06:03:11.670Z,85.79
2019-03-12T06:05:40.710Z,85.25
2019-03-12T06:08:09.859Z,84.80
2019-03-12T06:10:38.947Z,84.78
2019-03-12T06:13:14.212Z,84.29
2019-03-12T06:15:43.314Z,84.85
2019-03-12T06:18:15.168Z,84.59
2019-03-12T06:20:44.283Z,84.28
2019-03-12T06:23:15.219Z,84.06
2019-03-12T06:25:44.494Z,83.34
2019-03-12T06:28:14.864Z,83.75
2019-03-12T06:31:03.857Z,82.31
2019-03-12T06:33:49.085Z,84.21
2019-03-12T06:36:32.009Z,83.48
2019-03-12T06:39:15.718Z,82.41
2019-03-12T06:41:58.484Z,82.86
2019-03-12T06:44:35.399Z,80.80
2019-03-12T06:47:18.393Z,80.39
2019-03-12T06:50:09.222Z,79.50
2019-03-12T06:52:49.809Z,81.03
2019-03-12T06:55:33.825Z,81.57
2019-03-12T06:58:32.371Z,81.18
2019-03-12T07:01:13.194Z,80.26
2019-03-12T07:04:12.206Z,76.22
2019-03-12T07:07:12.831Z,79.44
2019-03-12T07:10:06.933Z,76.76
2019-03-12T07:12:57.764Z,75.43
2019-03-12T07:15:49.508Z,73.15
2019-03-12T07:18:52.744Z,71.33
2019-03-12T07:21:35.405Z,75.27
2019-03-12T07:24:13.162Z,75.21
2019-03-12T07:27:03.950Z,71.83
2019-03-12T07:29:40.444Z,71.16
2019-03-12T07:32:18.245Z,71.15
2019-03-12T07:35:12.359Z,70.87
2019-03-12T07:38:03.184Z,68.47
2019-03-12T07:40:51.332Z,66.96
2019-03-12T07:43:42.412Z,65.38
2019-03-12T07:46:23.386Z,65.72
2019-03-12T07:49:01.406Z,66.14
2019-03-12T07:51:49.497Z,65.33
2019-03-12T07:54:46.710Z,65.17
2019-03-12T07:57:24.401Z,62.29
2019-03-12T08:00:14.286Z,64.56
2019-03-12T08:02:54.542Z,64.19
2019-03-12T08:05:41.634Z,63.85
2019-03-12T08:08:23.363Z,65.51
2019-03-12T08:11:20.622Z,63.72
2019-03-12T08:14:07.560Z,60.08
2019-03-12T08:16:46.677Z,59.81
2019-03-12T08:19:33.526Z,59.34
2019-03-12T08:22:24.506Z,60.66
2019-03-12T08:25:18.632Z,60.09
2019-03-12T08:27:55.719Z,61.97
2019-03-12T08:30:52.662Z,63.20
2019-03-12T08:33:31.496Z,61.45
2019-03-12T08:36:34.650Z,61.59
2019-03-12T08:39:25.497Z,60.53
2019-03-12T08:42:10.409Z,60.42
2019-03-12T08:44:59.014Z,60.92
2019-03-12T08:47:56.196Z,58.94
2019-03-12T08:50:53.330Z,58.08
2019-03-12T08:53:31.203Z,58.39
2019-03-12T08:56:28.082Z,56.38
2019-03-12T08:59:16.130Z,55.81
2019-03-12T09:01:55.877Z,55.06
2019-03-12T09:04:47.456Z,54.82
2019-03-12T09:07:38.335Z,54.38
2019-03-12T09:10:33.555Z,53.16
2019-03-12T09:13:24.624Z,54.19
2019-03-12T09:16:06.020Z,52.45
2019-03-12T09:18:48.866Z,53.56
2019-03-12T09:21:39.949Z,53.26
2019-03-12T09:24:28.065Z,52.40
2019-03-12T09:27:14.724Z,50.91
2019-03-12T09:30:03.030Z,50.88
2019-03-12T09:32:51.114Z,50.61
2019-03-12T09:35:34.478Z,49.34
2019-03-12T09:38:12.465Z,50.37
2019-03-12T09:40:57.905Z,51.50
2019-03-12T09:43:51.068Z,51.11
2019-03-12T09:46:35.489Z,52.56
2019-03-12T09:49:19.338Z,52.12
2019-03-12T09:52:11.766Z,51.42
2019-03-12T09:54:49.224Z,51.53
2019-03-12T09:57:35.677Z,52.24
2019-03-12T10:00:24.668Z,50.39
2019-03-12T10:03:07.949Z,50.80
2019-03-12T10:05:56.009Z,51.24
2019-03-12T10:08:52.940Z,50.22
2019-03-12T10:11:30.640Z,49.96
2019-03-12T10:14:28.190Z,49.82
2019-03-12T10:17:16.223Z,48.77
2019-03-12T10:20:10.963Z,48.21
2019-03-12T10:22:57.710Z,47.82
2019-03-12T10:26:03.773Z,47.15
2019-03-12T10:29:07.400Z,48.15
2019-03-12T10:31:55.451Z,46.82
2019-03-12T10:34:52.695Z,46.67
2019-03-12T10:37:30.029Z,48.46
2019-03-12T10:40:19.159Z,47.94
2019-03-12T10:43:15.754Z,48.62
2019-03-12T10:45:50.566Z,47.38
2019-03-12T10:48:19.733Z,47.96
2019-03-12T10:50:48.888Z,48.63
2019-03-12T10:53:17.997Z,48.95
2019-03-12T10:55:47.164Z,49.66
2019-03-12T10:58:16.332Z,49.80
2019-03-12T11:00:46.867Z,49.94
2019-03-12T11:03:16.125Z,49.62
2019-03-12T11:05:46.461Z,49.61
2019-03-12T11:08:15.735Z,49.48
2019-03-12T11:10:44.924Z,50.23
2019-03-12T11:13:14.798Z,50.21
2019-03-12T11:15:44.205Z,51.35
2019-03-12T11:18:13.379Z,50.60
2019-03-12T11:20:42.439Z,51.20
2019-03-12T11:23:11.633Z,48.79
2019-03-12T11:25:40.682Z,49.13
2019-03-12T11:28:09.808Z,48.81
2019-03-12T11:30:38.912Z,48.00
2019-03-12T11:33:08.050Z,47.80
2019-03-12T11:35:39.476Z,47.49
2019-03-12T11:38:10.384Z,47.79
2019-03-12T11:40:42.940Z,47.13
2019-03-12T11:43:12.173Z,46.94
2019-03-12T11:45:41.381Z,47.59
2019-03-12T11:48:10.600Z,47.25
2019-03-12T11:50:42.657Z,47.42
2019-03-12T11:53:11.892Z,47.04
2019-03-12T11:55:41.027Z,46.54
2019-03-12T11:58:10.193Z,45.67
2019-03-12T12:00:45.928Z,45.92
2019-03-12T12:03:15.019Z,46.55
2019-03-12T12:05:44.152Z,45.29
2019-03-12T12:08:13.218Z,45.76
2019-03-12T12:10:43.296Z,45.69
2019-03-12T12:13:14.627Z,45.84
2019-03-12T12:15:43.857Z,45.61
2019-03-12T12:18:13.010Z,46.03
2019-03-12T12:20:42.168Z,45.97
2019-03-12T12:23:12.877Z,45.80
2019-03-12T12:25:41.898Z,44.90
2019-03-12T12:28:11.081Z,45.87
2019-03-12T12:30:41.251Z,44.90
2019-03-12T12:33:10.342Z,44.48
2019-03-12T12:35:39.546Z,43.82
2019-03-12T12:38:10.923Z,43.20
2019-03-12T12:40:40.124Z,43.69
2019-03-12T12:43:09.260Z,42.80
2019-03-12T12:45:38.441Z,41.56
2019-03-12T12:48:07.601Z,41.16
2019-03-12T12:50:36.768Z,42.83
2019-03-12T12:53:07.015Z,43.09
2019-03-12T12:55:36.183Z,42.22
2019-03-12T12:58:05.350Z,43.08
2019-03-12T13:00:34.623Z,43.48
2019-03-12T13:03:03.984Z,43.39
2019-03-12T13:05:33.567Z,43.46
2019-03-12T13:08:02.665Z,44.70
2019-03-12T13:10:31.957Z,43.46
2019-03-12T13:13:01.098Z,42.87
2019-03-12T13:15:30.259Z,42.69
2019-03-12T13:17:59.452Z,42.42
2019-03-12T13:20:28.589Z,43.07
2019-03-12T13:22:57.817Z,42.66
2019-03-12T13:25:28.438Z,40.96
2019-03-12T13:27:57.565Z,40.76
2019-03-12T13:30:26.681Z,40.46
2019-03-12T13:32:55.842Z,40.04
2019-03-12T13:35:25.142Z,39.68
2019-03-12T13:37:54.373Z,40.93
2019-03-12T13:40:24.330Z,41.83
2019-03-12T13:42:53.853Z,41.62
2019-03-12T13:45:23.144Z,42.10
2019-03-12T13:47:52.396Z,41.43
2019-03-12T13:50:21.681Z,40.10
2019-03-12T13:52:50.885Z,40.72
2019-03-12T13:55:20.238Z,40.17
2019-03-12T13:57:50.620Z,39.83
2019-03-12T14:00:20.362Z,39.68
2019-03-12T14:02:49.532Z,39.01
2019-03-12T14:05:18.762Z,37.98
2019-03-12T14:07:47.943Z,38.95
2019-03-12T14:10:19.173Z,38.84
2019-03-12T14:12:48.344Z,38.47
2019-03-12T14:15:25.895Z,38.76
2019-03-12T14:17:55.035Z,38.78
2019-03-12T14:20:47.191Z,38.95
2019-03-12T14:23:19.216Z,38.99
2019-03-12T14:25:50.088Z,39.81
2019-03-12T14:28:19.191Z,39.23
2019-03-12T14:30:49.437Z,38.61
2019-03-12T14:33:18.602Z,38.74
2019-03-12T14:35:52.006Z,38.39
2019-03-12T14:38:18.737Z,37.92
2019-03-12T14:40:48.091Z,38.39
2019-03-12T14:43:17.208Z,37.83
2019-03-12T14:45:48.440Z,38.63
2019-03-12T14:48:42.223Z,37.75
2019-03-12T14:51:34.410Z,37.09
2019-03-12T14:54:03.938Z,36.65
2019-03-12T14:56:33.046Z,37.39
2019-03-12T14:59:02.118Z,36.66
2019-03-12T15:01:32.370Z,36.84
2019-03-12T15:04:01.524Z,36.25
2019-03-12T15:06:30.603Z,35.88
2019-03-12T15:08:59.717Z,35.82
2019-03-12T15:11:28.783Z,35.90
2019-03-12T15:13:57.878Z,35.90
2019-03-12T15:16:26.961Z,35.58
2019-03-12T15:18:56.093Z,36.00
2019-03-12T15:21:25.148Z,36.16
2019-03-12T15:23:54.291Z,36.43
2019-03-12T15:26:23.416Z,36.58
2019-03-12T15:28:52.554Z,36.80
2019-03-12T15:31:21.630Z,37.40
2019-03-12T15:33:50.798Z,39.30
2019-03-12T15:36:19.921Z,39.20
2019-03-12T15:38:49.090Z,40.51
2019-03-12T15:41:18.232Z,40.71
2019-03-12T15:43:47.333Z,40.69
2019-03-12T15:46:17.765Z,41.26
2019-03-12T15:48:46.866Z,43.07
2019-03-12T15:51:15.977Z,42.94
2019-03-12T15:53:45.112Z,43.17
2019-03-12T15:56:14.222Z,43.48
2019-03-12T15:58:43.325Z,43.09
2019-03-12T16:01:12.393Z,44.17
2019-03-12T16:03:43.525Z,43.99
2019-03-12T16:06:15.456Z,44.57
2019-03-12T16:08:44.605Z,44.49
2019-03-12T16:11:14.938Z,45.84
2019-03-12T16:13:44.105Z,44.67
2019-03-12T16:16:13.355Z,45.35
2019-03-12T16:18:42.582Z,45.33
2019-03-12T16:21:11.704Z,45.33
2019-03-12T16:23:40.824Z,45.68
2019-03-12T16:26:09.939Z,46.41
2019-03-12T16:28:39.123Z,46.29
2019-03-12T16:31:08.179Z,46.66
2019-03-12T16:33:37.279Z,46.41
2019-03-12T16:36:06.504Z,46.86
2019-03-12T16:38:35.704Z,47.50
2019-03-12T16:41:04.866Z,47.63
2019-03-12T16:43:33.917Z,47.46
2019-03-12T16:46:03.031Z,47.95
2019-03-12T16:48:32.131Z,47.88
2019-03-12T16:51:01.308Z,48.17
2019-03-12T16:53:30.397Z,49.34
2019-03-12T16:55:59.455Z,48.45
2019-03-12T16:58:28.509Z,48.23
2019-03-12T17:00:57.627Z,48.64
2019-03-12T17:03:26.871Z,48.90
2019-03-12T17:05:56.083Z,48.45
2019-03-12T17:08:25.216Z,49.02
2019-03-12T17:11:02.262Z,48.62
2019-03-12T17:13:25.633Z,49.22
2019-03-12T17:15:55.234Z,48.11
2019-03-12T17:18:24.488Z,47.95
2019-03-12T17:20:53.810Z,48.24
2019-03-12T17:23:23.064Z,47.23
2019-03-12T17:25:52.569Z,46.24
2019-03-12T17:28:21.703Z,46.78
2019-03-12T17:30:50.836Z,47.00
2019-03-12T17:33:19.908Z,46.75
2019-03-12T17:35:50.101Z,46.28
2019-03-12T17:38:19.864Z,46.67
2019-03-12T17:40:51.135Z,46.41
2019-03-12T17:43:20.176Z,46.18
2019-03-12T17:45:49.239Z,46.04
2019-03-12T17:48:20.651Z,45.97
2019-03-12T17:50:51.047Z,46.42
2019-03-12T17:53:21.771Z,46.79
2019-03-12T17:55:50.944Z,46.50
2019-03-12T17:58:22.567Z,46.41
2019-03-12T18:00:53.206Z,45.82
2019-03-12T18:03:22.358Z,46.40
2019-03-12T18:05:52.984Z,46.02
2019-03-12T18:08:22.178Z,45.78
2019-03-12T18:10:51.768Z,45.00
2019-03-12T18:13:21.897Z,45.68
2019-03-12T18:15:50.988Z,45.31
2019-03-12T18:18:20.075Z,46.04
2019-03-12T18:20:49.189Z,45.74
2019-03-12T18:23:18.258Z,46.01
2019-03-12T18:25:47.415Z,46.09
2019-03-12T18:28:16.639Z,44.60
2019-03-12T18:30:45.672Z,45.08
2019-03-12T18:33:14.705Z,44.80
2019-03-12T18:35:43.824Z,44.58
2019-03-12T18:38:12.992Z,44.66
2019-03-12T18:40:42.108Z,44.43
2019-03-12T18:43:14.514Z,43.98
2019-03-12T18:45:41.991Z,44.37
2019-03-12T18:48:11.073Z,44.49
2019-03-12T18:50:40.113Z,44.43
2019-03-12T18:53:09.287Z,44.32
2019-03-12T18:55:55.760Z,44.84
2019-03-12T18:58:24.828Z,43.58
2019-03-12T19:00:55.591Z,43.48
2019-03-12T19:03:24.677Z,43.41
2019-03-12T19:05:53.777Z,42.43
2019-03-12T19:08:22.967Z,41.52
2019-03-12T19:10:52.355Z,41.38
2019-03-12T19:13:21.605Z,41.86
2019-03-12T19:15:52.999Z,40.71
2019-03-12T19:18:22.130Z,41.04
2019-03-12T19:20:51.254Z,39.86
2019-03-12T19:23:21.151Z,39.47
2019-03-12T19:25:50.292Z,40.41
2019-03-12T19:28:19.390Z,39.28
2019-03-12T19:30:49.517Z,38.97
2019-03-12T19:33:18.656Z,37.91
2019-03-12T19:35:47.774Z,37.19
2019-03-12T19:38:16.898Z,37.41
2019-03-12T19:40:46.107Z,36.98
2019-03-12T19:43:15.302Z,36.54
2019-03-12T19:45:48.203Z,37.26
2019-03-12T19:48:19.895Z,36.35
2019-03-12T19:50:52.575Z,36.85
2019-03-12T19:53:21.766Z,36.92
2019-03-12T19:55:50.982Z,36.74
2019-03-12T19:58:20.116Z,36.43
2019-03-12T20:00:50.699Z,36.96
2019-03-12T20:03:19.880Z,37.12
2019-03-12T20:05:49.093Z,37.17
2019-03-12T20:08:18.563Z,37.41
2019-03-12T20:11:29.624Z,37.58
2019-03-12T20:14:54.160Z,37.70
2019-03-12T20:18:00.413Z,37.40
2019-03-12T20:21:01.705Z,38.11
2019-03-12T20:24:12.444Z,38.60
2019-03-12T20:27:25.708Z,38.18
2019-03-12T20:30:46.742Z,38.94
2019-03-12T20:34:09.250Z,38.33
2019-03-12T20:37:25.546Z,38.77
2019-03-12T20:40:40.749Z,38.91
2019-03-12T20:43:40.866Z,43.63
2019-03-12T20:46:46.829Z,44.83
2019-03-12T20:49:51.689Z,46.38
2019-03-12T20:53:08.778Z,47.50
2019-03-12T20:56:21.199Z,47.89
2019-03-12T20:59:26.475Z,48.04
2019-03-12T21:02:34.805Z,49.08
2019-03-12T21:05:32.005Z,48.94
2019-03-12T21:09:06.497Z,49.69
2019-03-12T21:12:28.941Z,49.50
2019-03-12T21:15:28.266Z,51.96
2019-03-12T21:18:26.008Z,53.23
2019-03-12T21:21:28.797Z,55.56
2019-03-12T21:24:26.112Z,55.76
2019-03-12T21:27:36.045Z,55.74
2019-03-12T21:30:03.635Z,57.00
2019-03-12T21:32:32.693Z,56.85
2019-03-12T21:35:01.858Z,57.65
2019-03-12T21:37:30.908Z,56.11
2019-03-12T21:39:59.984Z,57.92
2019-03-12T21:42:29.031Z,56.86
2019-03-12T21:44:58.112Z,56.41
2019-03-12T21:47:27.178Z,56.42
2019-03-12T21:49:56.295Z,56.45
2019-03-12T21:52:25.317Z,56.43
2019-03-12T21:54:54.463Z,57.36
2019-03-12T21:57:23.597Z,57.87
2019-03-12T21:59:52.659Z,58.79
2019-03-12T22:02:21.782Z,59.35
2019-03-12T22:04:50.886Z,59.64
2019-03-12T22:07:20.132Z,60.24
2019-03-12T22:09:49.291Z,61.28
2019-03-12T22:12:18.880Z,64.43
2019-03-12T22:14:48.481Z,67.16
2019-03-12T22:17:17.968Z,69.62
2019-03-12T22:19:47.149Z,72.25
2019-03-12T22:22:35.889Z,74.54
2019-03-12T22:25:06.135Z,77.07
2019-03-12T22:27:35.534Z,79.18
2019-03-12T22:30:05.130Z,80.06
2019-03-12T22:32:36.095Z,80.24
2019-03-12T22:35:05.581Z,80.67
2019-03-12T22:37:34.750Z,81.20
2019-03-12T22:40:03.759Z,82.53
2019-03-12T22:42:32.865Z,82.98
2019-03-12T22:45:01.883Z,83.23
2019-03-12T22:47:30.905Z,83.15
2019-03-12T22:49:59.954Z,83.10
2019-03-12T22:52:29.028Z,81.89
2019-03-12T22:54:58.076Z,81.91
2019-03-12T22:57:27.118Z,81.64
2019-03-12T22:59:56.221Z,81.04
2019-03-12T23:02:25.260Z,80.58
2019-03-12T23:04:54.320Z,80.13
2019-03-12T23:07:23.373Z,79.28
2019-03-12T23:09:52.474Z,79.94
2019-03-12T23:12:21.887Z,80.04
2019-03-12T23:14:50.938Z,80.57
2019-03-12T23:17:19.960Z,80.23
2019-03-12T23:19:49.041Z,79.92
2019-03-12T23:22:18.117Z,79.87
2019-03-12T23:24:47.150Z,78.48
2019-03-12T23:27:16.189Z,78.99
2019-03-12T23:29:45.218Z,79.37
2019-03-12T23:32:15.801Z,78.91
2019-03-12T23:34:44.835Z,79.63
2019-03-12T23:37:13.906Z,80.90
2019-03-12T23:39:42.960Z,82.48
2019-03-12T23:42:12.046Z,81.92
2019-03-12T23:44:41.093Z,82.76
2019-03-12T23:47:10.195Z,82.23
2019-03-12T23:49:39.241Z,81.75
2019-03-12T23:52:08.322Z,82.52
2019-03-12T23:54:37.460Z,83.20
2019-03-12T23:57:06.458Z,84.01
2019-03-12T23:59:35.496Z,83.17
